Broomfield, CO

3:38 PM MST on December 21, 2014 (GMT -0700)
Denver | Change Station
CLOSE
Current Station
Airport
Location: Denver,
Elevation: 5430 ft
Nearby Weather Stations

Elev 5430 ft 39.85 °N, 104.66 °W | Updated 45 minutes ago

Partly Cloudy
Partly Cloudy
50 °F
Feels Like 50 °F
N
12
Wind Variable Wind from West

Today
High -- | Low -- °F
--% Chance of Precip.
Yesterday
High -- | Low -- °F
Precip. -- in
7:18 AM 4:38 PM
Waning Crescent, 0% visible
Pressure 29.50 in
Visibility 10.0 miles
Clouds Few 6000 ft
Mostly Cloudy 12000 ft
Mostly Cloudy 20000 ft
Dew Point 24 °F
Humidity 36%
Rainfall 0.00 in
Snow Depth Not available.
UV 1 out of 12
Pollen .10 out of 12
Air Quality Not available.
Flu Activity Not available.
METAR KDEN 212153Z 27010KT 10SM FEW060 BKN120 BKN200 10/M04 A2954 RMK AO2 SLP988 T01001044

More Conditions Fewer Conditions

Pressure 29.50 in
Visibility 10.0 miles
Clouds Few 6000 ft
Mostly Cloudy 12000 ft
Mostly Cloudy 20000 ft
Dew Point 24 °F
Humidity 36%
Rainfall 0.00 in
Snow Depth Not available.
UV 1 out of 12
Pollen .10 out of 12
Air Quality Not available.
Flu Activity Not available.
METAR KDEN 212153Z 27010KT 10SM FEW060 BKN120 BKN200 10/M04 A2954 RMK AO2 SLP988 T01001044

More Conditions Fewer Conditions

10-Day Weather Forecast

Almanac

Astronomy

Dec. 21, 2014 Rise Set
Actual Time
Civil Twilight
Nautical Twilight
Astronomical Twilight
Moon
Length of Visible Light
Length of Day
Tomorrow will be .
, % of the Moon is Illuminated

Today's Extremes

State Highs State Lows

Community

WunderPhotos

Upload Photos

1,779,499 photos uploaded!

WunderBlogs® & News

Nearby

Air Quality

  Air Quality AQ Index Pollutant
Not available.

Snow Depth

Station Depth Elevation

Earthquake Activity

City Distance Mag. Time & Date
Minimum magnitude displayed is 2.5.

Coastal Water Temperatures

Place Temperature

Nearby Weather Stations